sensor_id;sensor_type;location;lat;lon;timestamp;P1;durP1;ratioP1;P2;durP2;ratioP2
57023;SDS011;42916;54.346;18.562;2024-03-25T00:08:59;9.80;;;5.90;;
57023;SDS011;42916;54.346;18.562;2024-03-25T00:12:18;9.30;;;5.90;;
57023;SDS011;42916;54.346;18.562;2024-03-25T00:15:40;9.60;;;5.60;;
57023;SDS011;42916;54.346;18.562;2024-03-25T00:26:30;10.20;;;6.00;;
57023;SDS011;42916;54.346;18.562;2024-03-25T00:58:34;8.70;;;5.90;;
57023;SDS011;42916;54.346;18.562;2024-03-25T02:01:31;11.60;;;7.40;;
57023;SDS011;42916;54.346;18.562;2024-03-25T02:05:01;12.70;;;7.00;;
57023;SDS011;42916;54.346;18.562;2024-03-25T02:12:06;15.90;;;7.00;;
57023;SDS011;42916;54.346;18.562;2024-03-25T03:08:16;11.80;;;6.70;;
57023;SDS011;42916;54.346;18.562;2024-03-25T03:14:06;15.80;;;6.80;;
57023;SDS011;42916;54.346;18.562;2024-03-25T03:17:37;12.60;;;6.70;;
57023;SDS011;42916;54.346;18.562;2024-03-25T03:20:25;14.10;;;7.20;;
57023;SDS011;42916;54.346;18.562;2024-03-25T03:27:46;13.00;;;7.10;;
57023;SDS011;42916;54.346;18.562;2024-03-25T03:37:36;12.60;;;7.60;;
57023;SDS011;42916;54.346;18.562;2024-03-25T03:45:40;12.80;;;7.90;;
57023;SDS011;42916;54.346;18.562;2024-03-25T03:49:00;13.40;;;7.60;;
57023;SDS011;42916;54.346;18.562;2024-03-25T04:08:22;15.80;;;8.70;;
57023;SDS011;42916;54.346;18.562;2024-03-25T04:15:46;15.50;;;9.10;;
57023;SDS011;42916;54.346;18.562;2024-03-25T04:22:46;17.10;;;8.60;;
57023;SDS011;42916;54.346;18.562;2024-03-25T04:30:27;13.40;;;8.40;;
57023;SDS011;42916;54.346;18.562;2024-03-25T05:04:48;15.20;;;9.60;;
57023;SDS011;42916;54.346;18.562;2024-03-25T05:54:30;20.20;;;11.50;;
57023;SDS011;42916;54.346;18.562;2024-03-25T05:57:21;23.20;;;11.90;;
57023;SDS011;42916;54.346;18.562;2024-03-25T05:59:47;19.70;;;12.40;;
57023;SDS011;42916;54.346;18.562;2024-03-25T06:02:15;20.20;;;11.80;;
57023;SDS011;42916;54.346;18.562;2024-03-25T06:04:43;19.60;;;12.40;;
57023;SDS011;42916;54.346;18.562;2024-03-25T06:09:55;22.70;;;13.30;;
57023;SDS011;42916;54.346;18.562;2024-03-25T06:12:21;23.20;;;12.70;;
57023;SDS011;42916;54.346;18.562;2024-03-25T06:14:47;23.70;;;12.40;;
57023;SDS011;42916;54.346;18.562;2024-03-25T06:17:14;23.60;;;11.70;;
57023;SDS011;42916;54.346;18.562;2024-03-25T06:19:41;21.30;;;12.50;;
57023;SDS011;42916;54.346;18.562;2024-03-25T06:22:07;19.70;;;10.50;;
57023;SDS011;42916;54.346;18.562;2024-03-25T06:24:32;14.30;;;9.80;;
57023;SDS011;42916;54.346;18.562;2024-03-25T06:26:58;20.10;;;12.60;;
57023;SDS011;42916;54.346;18.562;2024-03-25T06:29:28;21.80;;;12.80;;
57023;SDS011;42916;54.346;18.562;2024-03-25T06:31:55;20.00;;;12.10;;
57023;SDS011;42916;54.346;18.562;2024-03-25T06:34:41;24.90;;;12.00;;
57023;SDS011;42916;54.346;18.562;2024-03-25T06:37:09;23.20;;;12.10;;
57023;SDS011;42916;54.346;18.562;2024-03-25T06:39:38;26.80;;;12.60;;
57023;SDS011;42916;54.346;18.562;2024-03-25T06:42:11;97.70;;;18.10;;
57023;SDS011;42916;54.346;18.562;2024-03-25T06:44:38;20.50;;;11.80;;
57023;SDS011;42916;54.346;18.562;2024-03-25T06:50:28;19.20;;;11.50;;
57023;SDS011;42916;54.346;18.562;2024-03-25T06:52:56;17.80;;;10.60;;
57023;SDS011;42916;54.346;18.562;2024-03-25T06:55:22;24.80;;;13.30;;
57023;SDS011;42916;54.346;18.562;2024-03-25T07:00:34;22.80;;;13.10;;
57023;SDS011;42916;54.346;18.562;2024-03-25T07:03:28;19.60;;;12.40;;
57023;SDS011;42916;54.346;18.562;2024-03-25T07:06:28;23.60;;;12.80;;
57023;SDS011;42916;54.346;18.562;2024-03-25T07:25:45;23.50;;;11.10;;
57023;SDS011;42916;54.346;18.562;2024-03-25T07:31:58;22.70;;;14.00;;
57023;SDS011;42916;54.346;18.562;2024-03-25T07:34:40;25.30;;;14.30;;
57023;SDS011;42916;54.346;18.562;2024-03-25T07:37:14;26.00;;;14.40;;
57023;SDS011;42916;54.346;18.562;2024-03-25T07:43:48;28.40;;;17.60;;
57023;SDS011;42916;54.346;18.562;2024-03-25T07:46:22;26.60;;;15.30;;
57023;SDS011;42916;54.346;18.562;2024-03-25T07:48:52;26.70;;;16.80;;
57023;SDS011;42916;54.346;18.562;2024-03-25T07:55:22;26.10;;;14.30;;
57023;SDS011;42916;54.346;18.562;2024-03-25T07:58:09;24.50;;;13.70;;
57023;SDS011;42916;54.346;18.562;2024-03-25T08:07:31;23.10;;;13.40;;
57023;SDS011;42916;54.346;18.562;2024-03-25T08:10:01;17.30;;;12.60;;
57023;SDS011;42916;54.346;18.562;2024-03-25T08:12:28;17.50;;;11.00;;
57023;SDS011;42916;54.346;18.562;2024-03-25T08:14:53;15.80;;;10.10;;
57023;SDS011;42916;54.346;18.562;2024-03-25T08:17:19;14.30;;;9.50;;
57023;SDS011;42916;54.346;18.562;2024-03-25T08:19:50;13.40;;;8.70;;
57023;SDS011;42916;54.346;18.562;2024-03-25T08:22:17;15.60;;;9.10;;
57023;SDS011;42916;54.346;18.562;2024-03-25T08:24:53;17.60;;;10.80;;
57023;SDS011;42916;54.346;18.562;2024-03-25T08:27:18;14.80;;;9.50;;
57023;SDS011;42916;54.346;18.562;2024-03-25T08:29:47;14.30;;;10.00;;
57023;SDS011;42916;54.346;18.562;2024-03-25T08:32:21;16.40;;;10.40;;
57023;SDS011;42916;54.346;18.562;2024-03-25T08:35:11;13.10;;;10.00;;
57023;SDS011;42916;54.346;18.562;2024-03-25T08:37:55;14.10;;;10.00;;
57023;SDS011;42916;54.346;18.562;2024-03-25T08:40:55;13.60;;;9.20;;
57023;SDS011;42916;54.346;18.562;2024-03-25T08:43:44;12.70;;;8.80;;
57023;SDS011;42916;54.346;18.562;2024-03-25T08:52:20;16.00;;;9.30;;
57023;SDS011;42916;54.346;18.562;2024-03-25T08:58:01;15.60;;;9.40;;
57023;SDS011;42916;54.346;18.562;2024-03-25T09:00:31;16.00;;;10.80;;
57023;SDS011;42916;54.346;18.562;2024-03-25T09:02:58;18.70;;;11.50;;
57023;SDS011;42916;54.346;18.562;2024-03-25T09:05:28;16.10;;;10.30;;
57023;SDS011;42916;54.346;18.562;2024-03-25T09:08:26;14.60;;;9.90;;
57023;SDS011;42916;54.346;18.562;2024-03-25T09:10:56;16.30;;;10.00;;
57023;SDS011;42916;54.346;18.562;2024-03-25T09:14:01;16.40;;;9.90;;
57023;SDS011;42916;54.346;18.562;2024-03-25T09:19:54;16.40;;;9.80;;
57023;SDS011;42916;54.346;18.562;2024-03-25T09:22:47;13.40;;;9.10;;
57023;SDS011;42916;54.346;18.562;2024-03-25T09:25:31;15.70;;;9.10;;
57023;SDS011;42916;54.346;18.562;2024-03-25T09:28:00;13.60;;;9.00;;
57023;SDS011;42916;54.346;18.562;2024-03-25T09:30:29;17.30;;;10.60;;
57023;SDS011;42916;54.346;18.562;2024-03-25T09:32:56;15.20;;;10.50;;
57023;SDS011;42916;54.346;18.562;2024-03-25T09:35:26;16.30;;;11.00;;
57023;SDS011;42916;54.346;18.562;2024-03-25T09:38:24;15.50;;;10.30;;
57023;SDS011;42916;54.346;18.562;2024-03-25T09:40:53;15.00;;;9.90;;
57023;SDS011;42916;54.346;18.562;2024-03-25T09:46:53;14.20;;;8.90;;
57023;SDS011;42916;54.346;18.562;2024-03-25T09:49:27;11.80;;;8.50;;
57023;SDS011;42916;54.346;18.562;2024-03-25T09:52:04;11.40;;;8.50;;
57023;SDS011;42916;54.346;18.562;2024-03-25T09:57:48;17.20;;;10.10;;
57023;SDS011;42916;54.346;18.562;2024-03-25T10:00:25;13.80;;;9.00;;
57023;SDS011;42916;54.346;18.562;2024-03-25T10:02:53;13.40;;;9.10;;
57023;SDS011;42916;54.346;18.562;2024-03-25T10:05:28;14.80;;;10.10;;
57023;SDS011;42916;54.346;18.562;2024-03-25T10:07:58;12.80;;;9.20;;
57023;SDS011;42916;54.346;18.562;2024-03-25T10:11:05;14.10;;;9.50;;
57023;SDS011;42916;54.346;18.562;2024-03-25T10:14:04;16.60;;;10.10;;
57023;SDS011;42916;54.346;18.562;2024-03-25T10:20:04;17.40;;;10.10;;
57023;SDS011;42916;54.346;18.562;2024-03-25T10:22:45;12.20;;;8.40;;
57023;SDS011;42916;54.346;18.562;2024-03-25T10:25:29;12.90;;;8.60;;
57023;SDS011;42916;54.346;18.562;2024-03-25T10:34:07;11.40;;;8.20;;
57023;SDS011;42916;54.346;18.562;2024-03-25T10:46:09;11.60;;;7.70;;
57023;SDS011;42916;54.346;18.562;2024-03-25T10:52:20;16.00;;;8.30;;
57023;SDS011;42916;54.346;18.562;2024-03-25T11:00:52;14.20;;;7.60;;
57023;SDS011;42916;54.346;18.562;2024-03-25T11:10:07;9.80;;;6.80;;
57023;SDS011;42916;54.346;18.562;2024-03-25T11:12:59;10.30;;;6.50;;
57023;SDS011;42916;54.346;18.562;2024-03-25T11:33:40;7.30;;;4.60;;
57023;SDS011;42916;54.346;18.562;2024-03-25T11:44:44;8.60;;;5.40;;
57023;SDS011;42916;54.346;18.562;2024-03-25T11:47:29;6.40;;;4.30;;
57023;SDS011;42916;54.346;18.562;2024-03-25T11:50:30;4.80;;;3.60;;
57023;SDS011;42916;54.346;18.562;2024-03-25T11:53:57;4.10;;;3.00;;
57023;SDS011;42916;54.346;18.562;2024-03-25T11:56:25;7.30;;;5.00;;
57023;SDS011;42916;54.346;18.562;2024-03-25T11:58:52;10.20;;;4.80;;
57023;SDS011;42916;54.346;18.562;2024-03-25T12:01:18;5.70;;;3.60;;
57023;SDS011;42916;54.346;18.562;2024-03-25T12:11:08;6.30;;;4.30;;
57023;SDS011;42916;54.346;18.562;2024-03-25T12:14:26;6.30;;;4.00;;
57023;SDS011;42916;54.346;18.562;2024-03-25T12:24:35;6.80;;;4.00;;
57023;SDS011;42916;54.346;18.562;2024-03-25T12:27:36;5.80;;;3.30;;
57023;SDS011;42916;54.346;18.562;2024-03-25T12:37:36;5.00;;;3.10;;
57023;SDS011;42916;54.346;18.562;2024-03-25T12:40:26;4.10;;;3.10;;
57023;SDS011;42916;54.346;18.562;2024-03-25T12:42:55;4.00;;;3.00;;
57023;SDS011;42916;54.346;18.562;2024-03-25T12:49:00;6.30;;;3.80;;
57023;SDS011;42916;54.346;18.562;2024-03-25T12:57:43;9.50;;;4.80;;
57023;SDS011;42916;54.346;18.562;2024-03-25T13:00:15;8.70;;;4.70;;
57023;SDS011;42916;54.346;18.562;2024-03-25T13:02:45;6.80;;;4.30;;
57023;SDS011;42916;54.346;18.562;2024-03-25T13:05:15;6.30;;;4.70;;
57023;SDS011;42916;54.346;18.562;2024-03-25T13:11:27;4.20;;;3.10;;
57023;SDS011;42916;54.346;18.562;2024-03-25T13:13:54;5.10;;;3.20;;
57023;SDS011;42916;54.346;18.562;2024-03-25T13:16:21;6.90;;;3.80;;
57023;SDS011;42916;54.346;18.562;2024-03-25T13:21:55;5.80;;;3.40;;
57023;SDS011;42916;54.346;18.562;2024-03-25T13:24:27;4.40;;;3.30;;
57023;SDS011;42916;54.346;18.562;2024-03-25T13:27:37;5.80;;;3.90;;
57023;SDS011;42916;54.346;18.562;2024-03-25T13:30:07;9.90;;;4.20;;
57023;SDS011;42916;54.346;18.562;2024-03-25T13:32:48;7.10;;;4.70;;
57023;SDS011;42916;54.346;18.562;2024-03-25T13:35:31;11.80;;;5.90;;
57023;SDS011;42916;54.346;18.562;2024-03-25T13:38:12;7.50;;;4.30;;
57023;SDS011;42916;54.346;18.562;2024-03-25T13:41:08;10.20;;;4.40;;
57023;SDS011;42916;54.346;18.562;2024-03-25T13:43:54;7.40;;;5.20;;
57023;SDS011;42916;54.346;18.562;2024-03-25T13:49:21;11.70;;;6.20;;
57023;SDS011;42916;54.346;18.562;2024-03-25T13:52:04;13.70;;;5.60;;
57023;SDS011;42916;54.346;18.562;2024-03-25T13:54:31;13.00;;;6.30;;
57023;SDS011;42916;54.346;18.562;2024-03-25T13:57:01;10.40;;;5.50;;
57023;SDS011;42916;54.346;18.562;2024-03-25T14:06:37;9.60;;;4.80;;
57023;SDS011;42916;54.346;18.562;2024-03-25T14:09:50;8.10;;;4.90;;
57023;SDS011;42916;54.346;18.562;2024-03-25T14:12:15;8.50;;;5.10;;
57023;SDS011;42916;54.346;18.562;2024-03-25T14:14:59;6.90;;;3.90;;
57023;SDS011;42916;54.346;18.562;2024-03-25T14:17:27;4.80;;;2.40;;
57023;SDS011;42916;54.346;18.562;2024-03-25T14:22:57;3.50;;;2.20;;
57023;SDS011;42916;54.346;18.562;2024-03-25T14:25:23;4.60;;;2.20;;
57023;SDS011;42916;54.346;18.562;2024-03-25T14:27:48;2.80;;;2.30;;
57023;SDS011;42916;54.346;18.562;2024-03-25T14:30:14;5.40;;;3.00;;
57023;SDS011;42916;54.346;18.562;2024-03-25T14:32:40;4.10;;;3.00;;
57023;SDS011;42916;54.346;18.562;2024-03-25T14:35:08;6.50;;;3.40;;
57023;SDS011;42916;54.346;18.562;2024-03-25T14:37:36;4.80;;;3.20;;
57023;SDS011;42916;54.346;18.562;2024-03-25T14:40:02;6.90;;;3.70;;
57023;SDS011;42916;54.346;18.562;2024-03-25T14:42:30;8.70;;;4.00;;
57023;SDS011;42916;54.346;18.562;2024-03-25T14:45:28;7.00;;;4.70;;
57023;SDS011;42916;54.346;18.562;2024-03-25T14:47:58;10.50;;;5.30;;
57023;SDS011;42916;54.346;18.562;2024-03-25T14:53:05;10.30;;;7.10;;
57023;SDS011;42916;54.346;18.562;2024-03-25T14:55:33;10.70;;;7.00;;
57023;SDS011;42916;54.346;18.562;2024-03-25T14:58:08;11.40;;;7.40;;
57023;SDS011;42916;54.346;18.562;2024-03-25T15:00:36;10.90;;;6.70;;
57023;SDS011;42916;54.346;18.562;2024-03-25T15:03:08;11.60;;;7.20;;
57023;SDS011;42916;54.346;18.562;2024-03-25T15:05:36;12.50;;;7.50;;
57023;SDS011;42916;54.346;18.562;2024-03-25T15:08:03;10.50;;;6.50;;
57023;SDS011;42916;54.346;18.562;2024-03-25T15:10:34;9.20;;;6.70;;
57023;SDS011;42916;54.346;18.562;2024-03-25T15:13:08;11.30;;;6.80;;
57023;SDS011;42916;54.346;18.562;2024-03-25T15:15:38;11.00;;;7.20;;
57023;SDS011;42916;54.346;18.562;2024-03-25T15:18:06;11.90;;;7.20;;
57023;SDS011;42916;54.346;18.562;2024-03-25T15:20:34;9.00;;;5.60;;
57023;SDS011;42916;54.346;18.562;2024-03-25T15:23:00;9.40;;;5.50;;
57023;SDS011;42916;54.346;18.562;2024-03-25T15:25:29;8.30;;;5.10;;
57023;SDS011;42916;54.346;18.562;2024-03-25T15:28:19;8.00;;;5.30;;
57023;SDS011;42916;54.346;18.562;2024-03-25T15:31:16;7.20;;;5.10;;
57023;SDS011;42916;54.346;18.562;2024-03-25T15:33:55;9.00;;;5.20;;
57023;SDS011;42916;54.346;18.562;2024-03-25T15:36:27;7.70;;;4.70;;
57023;SDS011;42916;54.346;18.562;2024-03-25T15:41:56;7.40;;;4.80;;
57023;SDS011;42916;54.346;18.562;2024-03-25T15:44:36;7.80;;;4.80;;
57023;SDS011;42916;54.346;18.562;2024-03-25T15:50:03;9.90;;;5.90;;
57023;SDS011;42916;54.346;18.562;2024-03-25T15:53:00;7.10;;;5.00;;
57023;SDS011;42916;54.346;18.562;2024-03-25T15:56:10;7.50;;;5.00;;
57023;SDS011;42916;54.346;18.562;2024-03-25T15:58:50;5.70;;;4.30;;
57023;SDS011;42916;54.346;18.562;2024-03-25T16:01:16;8.10;;;5.20;;
57023;SDS011;42916;54.346;18.562;2024-03-25T16:03:43;8.80;;;5.80;;
57023;SDS011;42916;54.346;18.562;2024-03-25T16:06:13;8.40;;;5.30;;
57023;SDS011;42916;54.346;18.562;2024-03-25T16:08:40;8.70;;;5.10;;
57023;SDS011;42916;54.346;18.562;2024-03-25T16:11:17;7.70;;;5.10;;
57023;SDS011;42916;54.346;18.562;2024-03-25T16:13:46;7.40;;;4.60;;
57023;SDS011;42916;54.346;18.562;2024-03-25T16:16:23;8.10;;;5.40;;
57023;SDS011;42916;54.346;18.562;2024-03-25T16:18:53;6.90;;;4.80;;
57023;SDS011;42916;54.346;18.562;2024-03-25T16:21:23;5.70;;;4.50;;
57023;SDS011;42916;54.346;18.562;2024-03-25T16:23:59;6.50;;;4.30;;
57023;SDS011;42916;54.346;18.562;2024-03-25T16:26:38;8.90;;;5.10;;
57023;SDS011;42916;54.346;18.562;2024-03-25T16:29:10;6.60;;;4.60;;
57023;SDS011;42916;54.346;18.562;2024-03-25T16:34:47;14.70;;;9.00;;
57023;SDS011;42916;54.346;18.562;2024-03-25T16:37:34;9.50;;;7.20;;
57023;SDS011;42916;54.346;18.562;2024-03-25T16:43:23;13.70;;;9.50;;
57023;SDS011;42916;54.346;18.562;2024-03-25T16:46:10;10.70;;;7.80;;
57023;SDS011;42916;54.346;18.562;2024-03-25T16:48:51;8.80;;;6.10;;
57023;SDS011;42916;54.346;18.562;2024-03-25T16:54:46;9.00;;;6.00;;
57023;SDS011;42916;54.346;18.562;2024-03-25T16:57:21;7.90;;;5.50;;
57023;SDS011;42916;54.346;18.562;2024-03-25T16:59:51;11.20;;;6.20;;
57023;SDS011;42916;54.346;18.562;2024-03-25T17:02:20;8.50;;;6.00;;
57023;SDS011;42916;54.346;18.562;2024-03-25T17:04:50;12.50;;;7.10;;
57023;SDS011;42916;54.346;18.562;2024-03-25T17:07:31;12.40;;;7.80;;
57023;SDS011;42916;54.346;18.562;2024-03-25T17:10:18;14.00;;;8.20;;
57023;SDS011;42916;54.346;18.562;2024-03-25T17:12:48;13.10;;;8.20;;
57023;SDS011;42916;54.346;18.562;2024-03-25T17:18:31;14.20;;;9.60;;
57023;SDS011;42916;54.346;18.562;2024-03-25T17:23:58;18.90;;;8.80;;
57023;SDS011;42916;54.346;18.562;2024-03-25T17:26:33;14.00;;;8.30;;
57023;SDS011;42916;54.346;18.562;2024-03-25T17:29:04;12.70;;;7.50;;
57023;SDS011;42916;54.346;18.562;2024-03-25T17:34:55;14.20;;;7.80;;
57023;SDS011;42916;54.346;18.562;2024-03-25T17:37:24;13.50;;;8.10;;
57023;SDS011;42916;54.346;18.562;2024-03-25T17:40:01;14.30;;;9.40;;
57023;SDS011;42916;54.346;18.562;2024-03-25T17:46:15;16.70;;;9.70;;
57023;SDS011;42916;54.346;18.562;2024-03-25T17:51:21;18.00;;;8.50;;
57023;SDS011;42916;54.346;18.562;2024-03-25T17:54:18;14.60;;;8.80;;
57023;SDS011;42916;54.346;18.562;2024-03-25T17:56:44;15.80;;;8.70;;
57023;SDS011;42916;54.346;18.562;2024-03-25T17:59:31;14.60;;;8.70;;
57023;SDS011;42916;54.346;18.562;2024-03-25T18:01:58;22.80;;;12.50;;
57023;SDS011;42916;54.346;18.562;2024-03-25T18:04:31;25.30;;;14.00;;
57023;SDS011;42916;54.346;18.562;2024-03-25T18:07:15;33.90;;;15.50;;
57023;SDS011;42916;54.346;18.562;2024-03-25T18:09:52;37.30;;;17.20;;
57023;SDS011;42916;54.346;18.562;2024-03-25T18:12:22;39.30;;;18.20;;
57023;SDS011;42916;54.346;18.562;2024-03-25T18:14:48;45.00;;;19.80;;
57023;SDS011;42916;54.346;18.562;2024-03-25T18:17:20;47.50;;;22.30;;
57023;SDS011;42916;54.346;18.562;2024-03-25T18:20:00;45.20;;;20.90;;
57023;SDS011;42916;54.346;18.562;2024-03-25T18:25:38;44.60;;;21.00;;
57023;SDS011;42916;54.346;18.562;2024-03-25T18:34:02;43.50;;;20.80;;
57023;SDS011;42916;54.346;18.562;2024-03-25T18:36:43;42.20;;;19.90;;
57023;SDS011;42916;54.346;18.562;2024-03-25T18:39:12;36.70;;;18.30;;
57023;SDS011;42916;54.346;18.562;2024-03-25T18:41:39;38.30;;;19.30;;
57023;SDS011;42916;54.346;18.562;2024-03-25T18:44:07;35.20;;;17.70;;
57023;SDS011;42916;54.346;18.562;2024-03-25T18:47:03;34.30;;;16.20;;
57023;SDS011;42916;54.346;18.562;2024-03-25T18:49:42;30.30;;;15.60;;
57023;SDS011;42916;54.346;18.562;2024-03-25T18:52:21;35.20;;;15.80;;
57023;SDS011;42916;54.346;18.562;2024-03-25T18:54:55;28.90;;;14.80;;
57023;SDS011;42916;54.346;18.562;2024-03-25T18:57:25;29.10;;;15.10;;
57023;SDS011;42916;54.346;18.562;2024-03-25T19:03:01;28.70;;;15.50;;
57023;SDS011;42916;54.346;18.562;2024-03-25T19:05:32;26.90;;;14.70;;
57023;SDS011;42916;54.346;18.562;2024-03-25T19:08:02;34.00;;;16.80;;
57023;SDS011;42916;54.346;18.562;2024-03-25T19:10:32;32.00;;;16.80;;
57023;SDS011;42916;54.346;18.562;2024-03-25T19:13:21;35.40;;;17.90;;
57023;SDS011;42916;54.346;18.562;2024-03-25T19:15:57;38.90;;;20.20;;
57023;SDS011;42916;54.346;18.562;2024-03-25T19:18:31;34.60;;;19.60;;
57023;SDS011;42916;54.346;18.562;2024-03-25T19:21:01;39.30;;;19.60;;
57023;SDS011;42916;54.346;18.562;2024-03-25T19:23:34;41.00;;;19.50;;
57023;SDS011;42916;54.346;18.562;2024-03-25T19:29:03;39.70;;;20.70;;
57023;SDS011;42916;54.346;18.562;2024-03-25T19:31:56;39.00;;;21.30;;
57023;SDS011;42916;54.346;18.562;2024-03-25T19:34:41;50.90;;;24.80;;
57023;SDS011;42916;54.346;18.562;2024-03-25T19:40:31;55.40;;;27.50;;
57023;SDS011;42916;54.346;18.562;2024-03-25T19:45:35;61.10;;;28.30;;
57023;SDS011;42916;54.346;18.562;2024-03-25T19:51:26;50.30;;;25.50;;
57023;SDS011;42916;54.346;18.562;2024-03-25T20:00:00;64.70;;;28.60;;
57023;SDS011;42916;54.346;18.562;2024-03-25T20:02:28;65.10;;;30.30;;
57023;SDS011;42916;54.346;18.562;2024-03-25T20:05:00;66.10;;;31.80;;
57023;SDS011;42916;54.346;18.562;2024-03-25T20:07:38;74.50;;;34.80;;
57023;SDS011;42916;54.346;18.562;2024-03-25T20:10:27;76.90;;;35.70;;
57023;SDS011;42916;54.346;18.562;2024-03-25T20:12:54;85.60;;;39.10;;
57023;SDS011;42916;54.346;18.562;2024-03-25T20:15:29;87.30;;;39.40;;
57023;SDS011;42916;54.346;18.562;2024-03-25T20:18:06;96.50;;;42.80;;
57023;SDS011;42916;54.346;18.562;2024-03-25T20:20:43;96.80;;;43.10;;
57023;SDS011;42916;54.346;18.562;2024-03-25T20:23:11;103.30;;;46.10;;
57023;SDS011;42916;54.346;18.562;2024-03-25T20:28:25;105.00;;;47.40;;
57023;SDS011;42916;54.346;18.562;2024-03-25T20:30:56;109.30;;;47.50;;
57023;SDS011;42916;54.346;18.562;2024-03-25T20:33:25;102.20;;;46.50;;
57023;SDS011;42916;54.346;18.562;2024-03-25T20:35:57;110.60;;;49.30;;
57023;SDS011;42916;54.346;18.562;2024-03-25T20:42:13;111.00;;;50.40;;
57023;SDS011;42916;54.346;18.562;2024-03-25T20:44:58;96.70;;;47.70;;
57023;SDS011;42916;54.346;18.562;2024-03-25T20:51:14;102.40;;;46.30;;
57023;SDS011;42916;54.346;18.562;2024-03-25T20:54:34;97.60;;;46.40;;
57023;SDS011;42916;54.346;18.562;2024-03-25T21:14:41;100.50;;;49.00;;
57023;SDS011;42916;54.346;18.562;2024-03-25T21:17:16;97.10;;;48.90;;
57023;SDS011;42916;54.346;18.562;2024-03-25T21:19:45;98.40;;;46.60;;
57023;SDS011;42916;54.346;18.562;2024-03-25T21:29:40;104.30;;;48.00;;
57023;SDS011;42916;54.346;18.562;2024-03-25T21:39:50;118.50;;;51.80;;
57023;SDS011;42916;54.346;18.562;2024-03-25T21:52:52;55.40;;;23.60;;
57023;SDS011;42916;54.346;18.562;2024-03-25T22:16:44;75.10;;;39.20;;
57023;SDS011;42916;54.346;18.562;2024-03-25T22:19:43;88.80;;;43.90;;
57023;SDS011;42916;54.346;18.562;2024-03-25T22:22:12;82.10;;;39.20;;
57023;SDS011;42916;54.346;18.562;2024-03-25T22:24:58;77.70;;;40.60;;
57023;SDS011;42916;54.346;18.562;2024-03-25T22:28:01;83.30;;;39.40;;
57023;SDS011;42916;54.346;18.562;2024-03-25T22:37:34;84.90;;;40.40;;
57023;SDS011;42916;54.346;18.562;2024-03-25T22:40:43;81.30;;;40.00;;
57023;SDS011;42916;54.346;18.562;2024-03-25T22:43:22;78.70;;;38.10;;
57023;SDS011;42916;54.346;18.562;2024-03-25T22:49:51;87.30;;;40.90;;
57023;SDS011;42916;54.346;18.562;2024-03-25T23:00:08;91.80;;;43.20;;
57023;SDS011;42916;54.346;18.562;2024-03-25T23:03:40;84.20;;;36.70;;
57023;SDS011;42916;54.346;18.562;2024-03-25T23:10:14;81.80;;;40.20;;
57023;SDS011;42916;54.346;18.562;2024-03-25T23:12:46;85.00;;;39.50;;
57023;SDS011;42916;54.346;18.562;2024-03-25T23:15:19;81.10;;;39.40;;
57023;SDS011;42916;54.346;18.562;2024-03-25T23:17:50;82.00;;;38.50;;
57023;SDS011;42916;54.346;18.562;2024-03-25T23:23:32;81.80;;;38.80;;
57023;SDS011;42916;54.346;18.562;2024-03-25T23:29:49;95.80;;;41.60;;
57023;SDS011;42916;54.346;18.562;2024-03-25T23:44:00;92.50;;;40.20;;
57023;SDS011;42916;54.346;18.562;2024-03-25T23:46:55;96.20;;;40.40;;
57023;SDS011;42916;54.346;18.562;2024-03-25T23:49:27;82.30;;;37.00;;
57023;SDS011;42916;54.346;18.562;2024-03-25T23:52:03;102.80;;;41.40;;
57023;SDS011;42916;54.346;18.562;2024-03-25T23:54:50;96.50;;;42.30;;
